PER weather

Perth International Airport
Perth, Western Australia, Australia

Public forecast

Using degrees Celsius for public forecast. Weather courtesy of forecast.io.

Current aviation weather report (METAR) for Perth International Airport

Retrieved 2019/10/23 09:30 UTC (0 seconds ago):

YPPH 230930Z 25014KT 9999 FEW024 BKN034 18/13 Q1015 INTER 1030/1230 4000 SHRA BKN010 BKN020

Aviation forecast (TAF) for Perth International Airport

Forecast is more than 6 hours old.

Retrieved 2019-10-23 00:00 UTC (9 hours ago):

TAF YPPH 222304Z 2300/2406 28013KT 9999 SCT030 FM230600 27014KT 9999 -SHRA FEW015 BKN030 FM231300 22012KT 9999 BKN040 FM232100 18009KT 9999 SCT035 FM240300 23014KT CAVOK INTER 2308/2312 4000 SHRA BKN010